sensor_id;sensor_type;location;lat;lon;timestamp;pressure;altitude;pressure_sealevel;temperature;humidity
35307;BME280;21420;52.196;21.416;2023-04-10T00:02:08;101026.63;;;6.58;60.71
35307;BME280;21420;52.196;21.416;2023-04-10T00:04:34;101026.67;;;6.52;60.82
35307;BME280;21420;52.196;21.416;2023-04-10T00:07:01;101022.10;;;6.43;60.68
35307;BME280;21420;52.196;21.416;2023-04-10T00:09:29;101021.73;;;6.35;60.65
35307;BME280;21420;52.196;21.416;2023-04-10T00:11:59;101024.32;;;6.27;60.79
35307;BME280;21420;52.196;21.416;2023-04-10T00:14:29;101028.95;;;6.17;60.85
35307;BME280;21420;52.196;21.416;2023-04-10T00:16:56;101031.70;;;6.06;60.64
35307;BME280;21420;52.196;21.416;2023-04-10T00:19:23;101030.75;;;5.97;60.69
35307;BME280;21420;52.196;21.416;2023-04-10T00:21:50;101032.10;;;5.92;60.82
35307;BME280;21420;52.196;21.416;2023-04-10T00:24:16;101032.96;;;5.88;60.92
35307;BME280;21420;52.196;21.416;2023-04-10T00:26:43;101035.77;;;5.84;60.89
35307;BME280;21420;52.196;21.416;2023-04-10T00:29:09;101037.60;;;5.80;61.00
35307;BME280;21420;52.196;21.416;2023-04-10T00:31:36;101040.98;;;5.78;61.01
35307;BME280;21420;52.196;21.416;2023-04-10T00:34:03;101038.72;;;5.77;61.13
35307;BME280;21420;52.196;21.416;2023-04-10T00:36:29;101036.30;;;5.75;61.09
35307;BME280;21420;52.196;21.416;2023-04-10T00:38:57;101036.58;;;5.74;61.20
35307;BME280;21420;52.196;21.416;2023-04-10T00:41:25;101041.43;;;5.72;61.35
35307;BME280;21420;52.196;21.416;2023-04-10T00:43:57;101043.59;;;5.70;61.48
35307;BME280;21420;52.196;21.416;2023-04-10T00:46:25;101045.05;;;5.63;61.31
35307;BME280;21420;52.196;21.416;2023-04-10T00:48:53;101044.77;;;5.53;61.09
35307;BME280;21420;52.196;21.416;2023-04-10T00:51:21;101042.55;;;5.51;61.28
35307;BME280;21420;52.196;21.416;2023-04-10T00:53:49;101044.11;;;5.52;61.41
35307;BME280;21420;52.196;21.416;2023-04-10T00:56:17;101041.50;;;5.49;61.49
35307;BME280;21420;52.196;21.416;2023-04-10T00:58:44;101044.52;;;5.45;61.49
35307;BME280;21420;52.196;21.416;2023-04-10T01:01:11;101050.41;;;5.40;61.54
35307;BME280;21420;52.196;21.416;2023-04-10T01:03:39;101051.44;;;5.36;61.55
35307;BME280;21420;52.196;21.416;2023-04-10T01:09:16;101048.86;;;5.25;61.52
35307;BME280;21420;52.196;21.416;2023-04-10T01:17:28;101055.46;;;4.97;61.72
35307;BME280;21420;52.196;21.416;2023-04-10T01:20:06;101057.95;;;4.92;61.70
35307;BME280;21420;52.196;21.416;2023-04-10T01:22:45;101057.98;;;4.85;61.57
35307;BME280;21420;52.196;21.416;2023-04-10T01:31:15;101053.27;;;4.66;61.74
35307;BME280;21420;52.196;21.416;2023-04-10T01:33:47;101048.39;;;4.64;61.90
35307;BME280;21420;52.196;21.416;2023-04-10T01:36:23;101050.02;;;4.63;61.88
35307;BME280;21420;52.196;21.416;2023-04-10T01:38:52;101049.09;;;4.55;61.89
35307;BME280;21420;52.196;21.416;2023-04-10T01:41:21;101046.40;;;4.51;62.01
35307;BME280;21420;52.196;21.416;2023-04-10T01:43:50;101040.44;;;4.49;61.93
35307;BME280;21420;52.196;21.416;2023-04-10T01:46:19;101038.23;;;4.45;61.97
35307;BME280;21420;52.196;21.416;2023-04-10T01:48:48;101034.20;;;4.37;61.85
35307;BME280;21420;52.196;21.416;2023-04-10T01:51:16;101033.38;;;4.29;61.89
35307;BME280;21420;52.196;21.416;2023-04-10T01:53:43;101033.27;;;4.26;61.96
35307;BME280;21420;52.196;21.416;2023-04-10T01:56:11;101033.94;;;4.23;62.12
35307;BME280;21420;52.196;21.416;2023-04-10T01:58:42;101039.16;;;4.19;62.02
35307;BME280;21420;52.196;21.416;2023-04-10T02:01:09;101044.30;;;4.08;62.01
35307;BME280;21420;52.196;21.416;2023-04-10T02:03:54;101040.52;;;4.02;62.17
35307;BME280;21420;52.196;21.416;2023-04-10T02:09:47;101038.44;;;4.06;62.41
35307;BME280;21420;52.196;21.416;2023-04-10T02:12:19;101033.56;;;4.06;62.42
35307;BME280;21420;52.196;21.416;2023-04-10T02:14:48;101026.25;;;4.07;62.58
35307;BME280;21420;52.196;21.416;2023-04-10T02:17:25;101029.06;;;4.07;62.46
35307;BME280;21420;52.196;21.416;2023-04-10T02:19:57;101032.23;;;4.02;62.39
35307;BME280;21420;52.196;21.416;2023-04-10T02:22:25;101040.38;;;3.98;62.52
35307;BME280;21420;52.196;21.416;2023-04-10T02:24:53;101044.11;;;3.98;62.59
35307;BME280;21420;52.196;21.416;2023-04-10T02:27:29;101044.92;;;3.96;62.50
35307;BME280;21420;52.196;21.416;2023-04-10T02:29:57;101044.77;;;3.92;62.58
35307;BME280;21420;52.196;21.416;2023-04-10T02:32:24;101042.45;;;3.90;62.57
35307;BME280;21420;52.196;21.416;2023-04-10T02:34:51;101039.63;;;3.88;62.63
35307;BME280;21420;52.196;21.416;2023-04-10T02:37:18;101042.34;;;3.88;62.76
35307;BME280;21420;52.196;21.416;2023-04-10T02:39:45;101044.83;;;3.89;62.66
35307;BME280;21420;52.196;21.416;2023-04-10T02:42:12;101044.08;;;3.88;62.89
35307;BME280;21420;52.196;21.416;2023-04-10T02:44:38;101042.67;;;3.83;62.81
35307;BME280;21420;52.196;21.416;2023-04-10T02:47:06;101044.85;;;3.80;62.77
35307;BME280;21420;52.196;21.416;2023-04-10T02:49:33;101045.95;;;3.79;62.99
35307;BME280;21420;52.196;21.416;2023-04-10T02:52:09;101044.33;;;3.71;62.65
35307;BME280;21420;52.196;21.416;2023-04-10T02:54:35;101049.77;;;3.56;62.65
35307;BME280;21420;52.196;21.416;2023-04-10T02:57:03;101050.42;;;3.44;62.61
35307;BME280;21420;52.196;21.416;2023-04-10T02:59:30;101048.20;;;3.43;62.77
35307;BME280;21420;52.196;21.416;2023-04-10T03:01:57;101048.65;;;3.39;62.89
35307;BME280;21420;52.196;21.416;2023-04-10T03:04:24;101046.91;;;3.32;62.86
35307;BME280;21420;52.196;21.416;2023-04-10T03:06:51;101045.62;;;3.28;63.00
35307;BME280;21420;52.196;21.416;2023-04-10T03:09:18;101044.14;;;3.27;63.04
35307;BME280;21420;52.196;21.416;2023-04-10T03:11:44;101042.15;;;3.23;63.08
35307;BME280;21420;52.196;21.416;2023-04-10T03:14:11;101045.28;;;3.21;63.09
35307;BME280;21420;52.196;21.416;2023-04-10T03:16:38;101042.73;;;3.20;63.16
35307;BME280;21420;52.196;21.416;2023-04-10T03:19:05;101043.98;;;3.19;63.13
35307;BME280;21420;52.196;21.416;2023-04-10T03:21:31;101044.35;;;3.18;63.24
35307;BME280;21420;52.196;21.416;2023-04-10T03:23:58;101042.61;;;3.15;63.24
35307;BME280;21420;52.196;21.416;2023-04-10T03:26:24;101040.41;;;3.16;63.35
35307;BME280;21420;52.196;21.416;2023-04-10T03:28:52;101041.05;;;3.15;63.29
35307;BME280;21420;52.196;21.416;2023-04-10T03:31:19;101043.05;;;3.15;63.48
35307;BME280;21420;52.196;21.416;2023-04-10T03:33:45;101040.95;;;3.14;63.50
35307;BME280;21420;52.196;21.416;2023-04-10T03:36:12;101037.86;;;3.14;63.42
35307;BME280;21420;52.196;21.416;2023-04-10T03:38:39;101041.76;;;3.11;63.48
35307;BME280;21420;52.196;21.416;2023-04-10T03:41:07;101042.36;;;3.08;63.34
35307;BME280;21420;52.196;21.416;2023-04-10T03:43:34;101040.73;;;3.03;63.39
35307;BME280;21420;52.196;21.416;2023-04-10T03:46:01;101039.30;;;2.99;63.37
35307;BME280;21420;52.196;21.416;2023-04-10T03:48:28;101038.77;;;2.97;63.56
35307;BME280;21420;52.196;21.416;2023-04-10T03:50:56;101039.63;;;2.97;63.63
35307;BME280;21420;52.196;21.416;2023-04-10T03:53:23;101033.84;;;2.98;63.57
35307;BME280;21420;52.196;21.416;2023-04-10T03:55:51;101034.11;;;2.97;63.62
35307;BME280;21420;52.196;21.416;2023-04-10T03:58:18;101034.92;;;2.96;63.70
35307;BME280;21420;52.196;21.416;2023-04-10T04:00:46;101037.37;;;2.95;63.54
35307;BME280;21420;52.196;21.416;2023-04-10T04:03:20;101034.45;;;2.94;63.49
35307;BME280;21420;52.196;21.416;2023-04-10T04:05:47;101034.33;;;2.94;63.49
35307;BME280;21420;52.196;21.416;2023-04-10T04:08:40;101040.70;;;2.93;63.58
35307;BME280;21420;52.196;21.416;2023-04-10T04:11:20;101046.02;;;2.95;63.87
35307;BME280;21420;52.196;21.416;2023-04-10T04:14:00;101050.08;;;2.96;63.91
35307;BME280;21420;52.196;21.416;2023-04-10T04:16:48;101049.00;;;3.00;63.89
35307;BME280;21420;52.196;21.416;2023-04-10T04:19:41;101052.20;;;3.06;63.93
35307;BME280;21420;52.196;21.416;2023-04-10T04:22:21;101058.42;;;3.08;63.99
35307;BME280;21420;52.196;21.416;2023-04-10T04:25:02;101063.08;;;3.06;63.72
35307;BME280;21420;52.196;21.416;2023-04-10T04:28:00;101061.08;;;3.10;63.90
35307;BME280;21420;52.196;21.416;2023-04-10T04:30:32;101063.85;;;3.20;64.05
35307;BME280;21420;52.196;21.416;2023-04-10T04:33:16;101071.86;;;3.21;63.82
35307;BME280;21420;52.196;21.416;2023-04-10T04:35:55;101074.73;;;3.22;63.94
35307;BME280;21420;52.196;21.416;2023-04-10T04:38:34;101083.83;;;3.36;64.30
35307;BME280;21420;52.196;21.416;2023-04-10T04:41:33;101080.36;;;3.52;64.38
35307;BME280;21420;52.196;21.416;2023-04-10T04:44:14;101078.58;;;3.64;64.29
35307;BME280;21420;52.196;21.416;2023-04-10T04:47:10;101082.35;;;3.77;64.37
35307;BME280;21420;52.196;21.416;2023-04-10T04:49:48;101086.19;;;3.86;64.40
35307;BME280;21420;52.196;21.416;2023-04-10T04:52:26;101090.29;;;3.94;64.34
35307;BME280;21420;52.196;21.416;2023-04-10T04:55:18;101089.82;;;4.09;64.51
35307;BME280;21420;52.196;21.416;2023-04-10T04:58:11;101100.14;;;4.22;64.42
35307;BME280;21420;52.196;21.416;2023-04-10T05:00:51;101102.58;;;4.24;64.30
35307;BME280;21420;52.196;21.416;2023-04-10T05:03:24;101106.77;;;4.36;64.55
35307;BME280;21420;52.196;21.416;2023-04-10T05:06:12;101108.22;;;4.55;64.71
35307;BME280;21420;52.196;21.416;2023-04-10T05:09:08;101107.20;;;4.76;64.84
35307;BME280;21420;52.196;21.416;2023-04-10T05:11:54;101119.83;;;4.98;64.87
35307;BME280;21420;52.196;21.416;2023-04-10T05:14:45;101123.90;;;5.19;65.01
35307;BME280;21420;52.196;21.416;2023-04-10T05:17:38;101122.91;;;5.43;65.18
35307;BME280;21420;52.196;21.416;2023-04-10T05:20:33;101130.17;;;5.67;65.17
35307;BME280;21420;52.196;21.416;2023-04-10T05:23:20;101129.27;;;5.92;65.28
35307;BME280;21420;52.196;21.416;2023-04-10T05:26:05;101129.39;;;6.20;65.26
35307;BME280;21420;52.196;21.416;2023-04-10T05:28:48;101129.59;;;6.46;65.34
35307;BME280;21420;52.196;21.416;2023-04-10T05:31:39;101125.66;;;6.73;65.46
35307;BME280;21420;52.196;21.416;2023-04-10T05:34:11;101122.79;;;6.98;65.43
35307;BME280;21420;52.196;21.416;2023-04-10T05:36:57;101125.64;;;7.26;65.48
35307;BME280;21420;52.196;21.416;2023-04-10T05:39:42;101127.59;;;7.56;65.55
35307;BME280;21420;52.196;21.416;2023-04-10T05:42:19;101126.98;;;7.85;65.61
35307;BME280;21420;52.196;21.416;2023-04-10T05:44:54;101127.38;;;8.13;65.56
35307;BME280;21420;52.196;21.416;2023-04-10T05:47:37;101128.34;;;8.43;65.60
35307;BME280;21420;52.196;21.416;2023-04-10T05:50:26;101128.42;;;8.77;65.69
35307;BME280;21420;52.196;21.416;2023-04-10T05:53:34;101132.71;;;9.04;65.48
35307;BME280;21420;52.196;21.416;2023-04-10T05:56:20;101132.85;;;9.23;65.37
35307;BME280;21420;52.196;21.416;2023-04-10T05:59:05;101136.07;;;9.39;65.32
35307;BME280;21420;52.196;21.416;2023-04-10T06:01:58;101138.69;;;9.53;65.35
35307;BME280;21420;52.196;21.416;2023-04-10T06:04:25;101145.68;;;9.63;65.44
35307;BME280;21420;52.196;21.416;2023-04-10T06:06:54;101148.09;;;9.72;65.25
35307;BME280;21420;52.196;21.416;2023-04-10T06:09:20;101147.02;;;9.81;65.25
35307;BME280;21420;52.196;21.416;2023-04-10T06:11:47;101143.98;;;10.00;65.23
35307;BME280;21420;52.196;21.416;2023-04-10T06:14:17;101136.80;;;10.44;65.49
35307;BME280;21420;52.196;21.416;2023-04-10T06:16:44;101132.19;;;11.05;65.52
35307;BME280;21420;52.196;21.416;2023-04-10T06:19:11;101132.37;;;11.76;65.49
35307;BME280;21420;52.196;21.416;2023-04-10T06:21:38;101131.25;;;12.49;65.61
35307;BME280;21420;52.196;21.416;2023-04-10T06:24:04;101130.42;;;13.25;65.43
35307;BME280;21420;52.196;21.416;2023-04-10T06:26:32;101134.93;;;13.98;65.41
35307;BME280;21420;52.196;21.416;2023-04-10T06:28:59;101133.91;;;14.74;65.08
35307;BME280;21420;52.196;21.416;2023-04-10T06:31:26;101134.15;;;15.48;64.92
35307;BME280;21420;52.196;21.416;2023-04-10T06:33:53;101135.77;;;16.13;64.75
35307;BME280;21420;52.196;21.416;2023-04-10T06:36:21;101139.99;;;16.79;64.51
35307;BME280;21420;52.196;21.416;2023-04-10T06:38:54;101140.95;;;17.41;64.28
35307;BME280;21420;52.196;21.416;2023-04-10T06:41:21;101145.40;;;17.97;63.88
35307;BME280;21420;52.196;21.416;2023-04-10T06:43:52;101147.36;;;18.46;63.37
35307;BME280;21420;52.196;21.416;2023-04-10T06:46:19;101147.01;;;18.89;63.09
35307;BME280;21420;52.196;21.416;2023-04-10T06:48:46;101149.98;;;19.45;62.99
35307;BME280;21420;52.196;21.416;2023-04-10T06:51:13;101150.96;;;20.03;62.75
35307;BME280;21420;52.196;21.416;2023-04-10T06:53:39;101152.08;;;20.65;62.56
35307;BME280;21420;52.196;21.416;2023-04-10T06:56:06;101151.85;;;21.20;62.01
35307;BME280;21420;52.196;21.416;2023-04-10T06:58:33;101151.61;;;21.71;61.80
35307;BME280;21420;52.196;21.416;2023-04-10T07:01:00;101150.14;;;22.27;61.62
35307;BME280;21420;52.196;21.416;2023-04-10T07:03:30;101152.11;;;22.81;61.40
35307;BME280;21420;52.196;21.416;2023-04-10T07:05:58;101150.27;;;23.25;60.67
35307;BME280;21420;52.196;21.416;2023-04-10T07:08:27;101147.65;;;23.42;60.02
35307;BME280;21420;52.196;21.416;2023-04-10T07:10:53;101146.67;;;23.61;59.69
35307;BME280;21420;52.196;21.416;2023-04-10T07:13:23;101146.77;;;23.89;59.52
35307;BME280;21420;52.196;21.416;2023-04-10T07:15:50;101141.28;;;24.22;59.11
35307;BME280;21420;52.196;21.416;2023-04-10T07:18:17;101141.31;;;24.39;58.68
35307;BME280;21420;52.196;21.416;2023-04-10T07:20:44;101139.44;;;24.80;59.03
35307;BME280;21420;52.196;21.416;2023-04-10T07:23:11;101139.02;;;25.33;59.02
35307;BME280;21420;52.196;21.416;2023-04-10T07:25:41;101134.56;;;25.90;58.67
35307;BME280;21420;52.196;21.416;2023-04-10T07:28:07;101135.88;;;26.45;58.21
35307;BME280;21420;52.196;21.416;2023-04-10T07:30:34;101140.51;;;27.00;58.06
35307;BME280;21420;52.196;21.416;2023-04-10T07:33:01;101140.14;;;27.46;57.59
35307;BME280;21420;52.196;21.416;2023-04-10T07:35:27;101133.95;;;27.95;57.36
35307;BME280;21420;52.196;21.416;2023-04-10T07:37:54;101130.41;;;28.50;57.09
35307;BME280;21420;52.196;21.416;2023-04-10T07:40:21;101129.42;;;28.91;56.31
35307;BME280;21420;52.196;21.416;2023-04-10T07:42:47;101128.16;;;29.22;56.00
35307;BME280;21420;52.196;21.416;2023-04-10T07:45:14;101127.43;;;29.50;55.41
35307;BME280;21420;52.196;21.416;2023-04-10T07:47:40;101124.92;;;29.61;54.75
35307;BME280;21420;52.196;21.416;2023-04-10T07:50:07;101128.94;;;29.85;54.87
35307;BME280;21420;52.196;21.416;2023-04-10T07:52:34;101129.53;;;30.22;54.59
35307;BME280;21420;52.196;21.416;2023-04-10T07:55:02;101132.55;;;30.40;53.66
35307;BME280;21420;52.196;21.416;2023-04-10T07:57:29;101132.59;;;30.37;53.13
35307;BME280;21420;52.196;21.416;2023-04-10T07:59:57;101126.66;;;30.29;52.66
35307;BME280;21420;52.196;21.416;2023-04-10T08:02:24;101127.17;;;30.22;52.54
35307;BME280;21420;52.196;21.416;2023-04-10T08:04:51;101127.12;;;30.29;52.32
35307;BME280;21420;52.196;21.416;2023-04-10T08:07:19;101124.98;;;30.23;52.07
35307;BME280;21420;52.196;21.416;2023-04-10T08:09:47;101124.94;;;30.29;52.28
35307;BME280;21420;52.196;21.416;2023-04-10T08:12:14;101123.84;;;30.62;52.31
35307;BME280;21420;52.196;21.416;2023-04-10T08:14:41;101120.20;;;31.05;51.96
35307;BME280;21420;52.196;21.416;2023-04-10T08:17:11;101116.30;;;31.10;50.92
35307;BME280;21420;52.196;21.416;2023-04-10T08:19:41;101116.16;;;31.38;51.26
35307;BME280;21420;52.196;21.416;2023-04-10T08:22:09;101114.14;;;31.83;51.21
35307;BME280;21420;52.196;21.416;2023-04-10T08:24:35;101115.06;;;32.28;51.09
35307;BME280;21420;52.196;21.416;2023-04-10T08:27:02;101112.24;;;32.66;50.85
35307;BME280;21420;52.196;21.416;2023-04-10T08:29:29;101108.56;;;32.92;50.46
35307;BME280;21420;52.196;21.416;2023-04-10T08:31:55;101105.42;;;33.21;50.30
35307;BME280;21420;52.196;21.416;2023-04-10T08:34:26;101101.57;;;33.63;50.20
35307;BME280;21420;52.196;21.416;2023-04-10T08:36:53;101098.05;;;34.04;49.78
35307;BME280;21420;52.196;21.416;2023-04-10T08:39:20;101102.17;;;34.02;49.17
35307;BME280;21420;52.196;21.416;2023-04-10T08:41:46;101100.16;;;34.23;49.28
35307;BME280;21420;52.196;21.416;2023-04-10T08:44:13;101099.13;;;34.66;49.32
35307;BME280;21420;52.196;21.416;2023-04-10T08:46:44;101094.61;;;35.03;48.98
35307;BME280;21420;52.196;21.416;2023-04-10T08:49:23;101095.56;;;35.46;49.10
35307;BME280;21420;52.196;21.416;2023-04-10T08:51:57;101090.88;;;35.78;48.43
35307;BME280;21420;52.196;21.416;2023-04-10T08:54:24;101091.38;;;35.79;47.66
35307;BME280;21420;52.196;21.416;2023-04-10T08:56:54;101096.09;;;36.13;48.12
35307;BME280;21420;52.196;21.416;2023-04-10T08:59:21;101093.91;;;36.23;47.32
35307;BME280;21420;52.196;21.416;2023-04-10T09:01:48;101095.48;;;36.25;47.05
35307;BME280;21420;52.196;21.416;2023-04-10T09:04:15;101096.38;;;36.46;47.20
35307;BME280;21420;52.196;21.416;2023-04-10T09:06:45;101093.95;;;36.74;47.01
35307;BME280;21420;52.196;21.416;2023-04-10T09:09:12;101090.56;;;36.82;46.43
35307;BME280;21420;52.196;21.416;2023-04-10T09:14:21;101089.98;;;36.70;45.67
35307;BME280;21420;52.196;21.416;2023-04-10T09:16:49;101084.78;;;36.69;45.50
35307;BME280;21420;52.196;21.416;2023-04-10T09:19:30;101080.46;;;36.41;44.84
35307;BME280;21420;52.196;21.416;2023-04-10T09:21:58;101076.90;;;36.14;45.13
35307;BME280;21420;52.196;21.416;2023-04-10T09:24:25;101073.91;;;36.23;44.91
35307;BME280;21420;52.196;21.416;2023-04-10T09:26:52;101068.31;;;36.46;44.82
35307;BME280;21420;52.196;21.416;2023-04-10T09:29:19;101064.39;;;36.47;44.53
35307;BME280;21420;52.196;21.416;2023-04-10T09:31:46;101060.73;;;36.61;44.53
35307;BME280;21420;52.196;21.416;2023-04-10T09:34:21;101053.54;;;36.94;44.63
35307;BME280;21420;52.196;21.416;2023-04-10T09:36:58;101050.23;;;36.71;43.29
35307;BME280;21420;52.196;21.416;2023-04-10T09:39:34;101052.86;;;35.84;43.24
35307;BME280;21420;52.196;21.416;2023-04-10T09:42:01;101050.27;;;35.68;43.59
35307;BME280;21420;52.196;21.416;2023-04-10T09:44:33;101056.23;;;36.03;43.86
35307;BME280;21420;52.196;21.416;2023-04-10T09:47:16;101050.59;;;36.45;43.58
35307;BME280;21420;52.196;21.416;2023-04-10T09:52:18;101046.76;;;35.57;42.39
35307;BME280;21420;52.196;21.416;2023-04-10T09:54:45;101042.31;;;35.59;42.76
35307;BME280;21420;52.196;21.416;2023-04-10T09:57:17;101036.16;;;36.01;42.90
35307;BME280;21420;52.196;21.416;2023-04-10T09:59:52;101037.86;;;36.28;42.71
35307;BME280;21420;52.196;21.416;2023-04-10T10:02:22;101033.30;;;36.61;42.68
35307;BME280;21420;52.196;21.416;2023-04-10T10:04:49;101030.17;;;36.65;41.80
35307;BME280;21420;52.196;21.416;2023-04-10T10:07:22;101024.68;;;36.60;41.99
35307;BME280;21420;52.196;21.416;2023-04-10T10:09:51;101026.45;;;36.92;42.20
35307;BME280;21420;52.196;21.416;2023-04-10T10:12:21;101023.48;;;37.50;42.55
35307;BME280;21420;52.196;21.416;2023-04-10T10:15:09;101021.37;;;38.25;42.52
35307;BME280;21420;52.196;21.416;2023-04-10T10:17:47;101019.05;;;38.72;41.95
35307;BME280;21420;52.196;21.416;2023-04-10T10:20:19;101015.73;;;39.22;42.04
35307;BME280;21420;52.196;21.416;2023-04-10T10:22:48;101009.70;;;39.39;41.27
35307;BME280;21420;52.196;21.416;2023-04-10T10:25:17;101008.65;;;39.27;40.62
35307;BME280;21420;52.196;21.416;2023-04-10T10:27:45;101007.37;;;38.50;39.91
35307;BME280;21420;52.196;21.416;2023-04-10T10:30:13;101005.52;;;37.44;39.65
35307;BME280;21420;52.196;21.416;2023-04-10T10:32:55;101008.20;;;37.23;40.02
35307;BME280;21420;52.196;21.416;2023-04-10T10:35:29;101005.77;;;36.87;39.56
35307;BME280;21420;52.196;21.416;2023-04-10T10:37:59;101005.84;;;36.05;39.15
35307;BME280;21420;52.196;21.416;2023-04-10T10:40:50;100998.62;;;34.84;38.50
35307;BME280;21420;52.196;21.416;2023-04-10T10:43:52;100997.23;;;33.23;37.94
35307;BME280;21420;52.196;21.416;2023-04-10T10:49:07;100993.50;;;30.67;38.11
35307;BME280;21420;52.196;21.416;2023-04-10T10:51:48;100985.84;;;30.00;38.36
35307;BME280;21420;52.196;21.416;2023-04-10T10:54:32;100987.67;;;30.27;39.50
35307;BME280;21420;52.196;21.416;2023-04-10T10:57:00;100979.94;;;31.22;40.44
35307;BME280;21420;52.196;21.416;2023-04-10T11:02:16;100963.87;;;33.01;40.21
35307;BME280;21420;52.196;21.416;2023-04-10T11:04:45;100969.55;;;32.60;38.73
35307;BME280;21420;52.196;21.416;2023-04-10T11:07:14;100970.13;;;31.67;38.30
35307;BME280;21420;52.196;21.416;2023-04-10T11:09:44;100968.54;;;31.07;38.46
35307;BME280;21420;52.196;21.416;2023-04-10T11:12:14;100964.09;;;31.11;38.77
35307;BME280;21420;52.196;21.416;2023-04-10T11:14:41;100963.66;;;31.61;39.05
35307;BME280;21420;52.196;21.416;2023-04-10T11:17:09;100961.13;;;32.28;39.14
35307;BME280;21420;52.196;21.416;2023-04-10T11:19:57;100955.44;;;32.36;38.57
35307;BME280;21420;52.196;21.416;2023-04-10T11:22:26;100956.73;;;31.82;38.04
35307;BME280;21420;52.196;21.416;2023-04-10T11:24:55;100951.39;;;31.82;38.73
35307;BME280;21420;52.196;21.416;2023-04-10T11:27:38;100949.02;;;32.35;38.89
35307;BME280;21420;52.196;21.416;2023-04-10T11:30:29;100949.05;;;32.36;38.23
35307;BME280;21420;52.196;21.416;2023-04-10T11:32:57;100946.16;;;31.64;37.66
35307;BME280;21420;52.196;21.416;2023-04-10T11:35:26;100947.38;;;30.78;37.15
35307;BME280;21420;52.196;21.416;2023-04-10T11:38:07;100942.86;;;29.98;37.25
35307;BME280;21420;52.196;21.416;2023-04-10T11:40:34;100938.76;;;29.22;37.21
35307;BME280;21420;52.196;21.416;2023-04-10T11:43:13;100931.58;;;28.60;37.45
35307;BME280;21420;52.196;21.416;2023-04-10T11:45:40;100934.07;;;27.93;37.46
35307;BME280;21420;52.196;21.416;2023-04-10T11:48:07;100933.98;;;27.42;37.61
35307;BME280;21420;52.196;21.416;2023-04-10T11:50:34;100929.54;;;27.02;37.72
35307;BME280;21420;52.196;21.416;2023-04-10T11:53:16;100919.34;;;26.87;38.23
35307;BME280;21420;52.196;21.416;2023-04-10T11:55:43;100918.47;;;27.42;39.01
35307;BME280;21420;52.196;21.416;2023-04-10T11:58:26;100916.30;;;27.96;38.79
35307;BME280;21420;52.196;21.416;2023-04-10T12:03:35;100917.21;;;26.92;37.58
35307;BME280;21420;52.196;21.416;2023-04-10T12:06:04;100918.45;;;26.25;37.64
35307;BME280;21420;52.196;21.416;2023-04-10T12:08:33;100919.15;;;25.86;38.06
35307;BME280;21420;52.196;21.416;2023-04-10T12:11:01;100912.77;;;25.48;38.09
35307;BME280;21420;52.196;21.416;2023-04-10T12:13:29;100908.70;;;25.03;37.81
35307;BME280;21420;52.196;21.416;2023-04-10T12:15:58;100904.09;;;24.74;38.19
35307;BME280;21420;52.196;21.416;2023-04-10T12:18:28;100900.52;;;24.59;38.54
35307;BME280;21420;52.196;21.416;2023-04-10T12:20:56;100899.64;;;24.50;38.59
35307;BME280;21420;52.196;21.416;2023-04-10T12:23:25;100897.69;;;24.40;38.69
35307;BME280;21420;52.196;21.416;2023-04-10T12:26:04;100892.63;;;24.36;38.83
35307;BME280;21420;52.196;21.416;2023-04-10T12:28:33;100887.70;;;24.27;38.97
35307;BME280;21420;52.196;21.416;2023-04-10T12:31:00;100886.48;;;24.24;38.95
35307;BME280;21420;52.196;21.416;2023-04-10T12:33:26;100884.72;;;24.22;39.20
35307;BME280;21420;52.196;21.416;2023-04-10T12:35:53;100881.61;;;24.21;39.19
35307;BME280;21420;52.196;21.416;2023-04-10T12:38:40;100882.32;;;24.35;39.31
35307;BME280;21420;52.196;21.416;2023-04-10T12:41:11;100875.74;;;24.74;39.68
35307;BME280;21420;52.196;21.416;2023-04-10T12:43:40;100873.36;;;25.51;40.17
35307;BME280;21420;52.196;21.416;2023-04-10T12:46:09;100872.98;;;26.21;40.08
35307;BME280;21420;52.196;21.416;2023-04-10T12:48:36;100865.42;;;26.78;40.06
35307;BME280;21420;52.196;21.416;2023-04-10T12:51:03;100864.83;;;26.84;39.07
35307;BME280;21420;52.196;21.416;2023-04-10T12:53:30;100864.20;;;26.54;38.44
35307;BME280;21420;52.196;21.416;2023-04-10T12:56:05;100869.41;;;26.15;38.53
35307;BME280;21420;52.196;21.416;2023-04-10T12:58:32;100867.73;;;26.14;39.02
35307;BME280;21420;52.196;21.416;2023-04-10T13:01:02;100867.24;;;26.39;39.11
35307;BME280;21420;52.196;21.416;2023-04-10T13:03:30;100861.08;;;26.75;39.35
35307;BME280;21420;52.196;21.416;2023-04-10T13:05:58;100859.48;;;27.17;39.59
35307;BME280;21420;52.196;21.416;2023-04-10T13:08:25;100857.22;;;27.37;39.24
35307;BME280;21420;52.196;21.416;2023-04-10T13:10:52;100852.29;;;27.26;38.87
35307;BME280;21420;52.196;21.416;2023-04-10T13:13:20;100850.42;;;27.09;38.65
35307;BME280;21420;52.196;21.416;2023-04-10T13:15:46;100851.04;;;27.04;38.65
35307;BME280;21420;52.196;21.416;2023-04-10T13:18:14;100846.79;;;27.01;38.40
35307;BME280;21420;52.196;21.416;2023-04-10T13:20:41;100841.14;;;27.08;38.74
35307;BME280;21420;52.196;21.416;2023-04-10T13:23:08;100836.81;;;27.05;38.50
35307;BME280;21420;52.196;21.416;2023-04-10T13:25:37;100837.89;;;26.90;38.48
35307;BME280;21420;52.196;21.416;2023-04-10T13:28:08;100831.28;;;26.59;38.47
35307;BME280;21420;52.196;21.416;2023-04-10T13:30:38;100822.84;;;26.56;38.76
35307;BME280;21420;52.196;21.416;2023-04-10T13:33:07;100823.29;;;26.66;38.56
35307;BME280;21420;52.196;21.416;2023-04-10T13:35:34;100824.65;;;26.59;38.54
35307;BME280;21420;52.196;21.416;2023-04-10T13:38:01;100831.16;;;26.50;38.62
35307;BME280;21420;52.196;21.416;2023-04-10T13:40:27;100832.63;;;26.18;38.22